Time;durP1;ratioP1;P1;durP2;ratioP2;P2;SDS_P1;SDS_P2;PMS_P1;PMS_P2;Temp;Humidity;BMP_temperature;BMP_pressure;BME280_temperature;BME280_humidity;BME280_pressure;Samples;Min_cycle;Max_cycle;Signal;HPM_P1;HPM_P2
2023/05/27 00:02:06;;;;;;;;;;;;;;;;;;5073536;28;19962;-63
2023/05/27 00:04:32;;;;;;;;;;;;;;;;;;5072894;28;20054;-64
2023/05/27 00:06:58;;;;;;;;;;;;;;;;;;5072851;28;19962;-65
2023/05/27 00:09:24;;;;;;;;;;;;;;;;;;5074396;28;19956;-65
2023/05/27 00:11:50;;;;;;;;;;;;;;;;;;5076679;28;19956;-64
2023/05/27 00:14:17;;;;;;;;;;;;;;;;;;5076276;28;20022;-64
2023/05/27 00:16:43;;;;;;;;;;;;;;;;;;5076638;28;20002;-64
2023/05/27 00:19:09;;;;;;;;;;;;;;;;;;5076264;28;20394;-65
2023/05/27 00:21:35;;;;;;;;;;;;;;;;;;5076784;28;19963;-64
2023/05/27 00:24:01;;;;;;;;;;;;;;;;;;5076542;28;20021;-65
2023/05/27 00:26:27;;;;;;;;;;;;;;;;;;5076064;28;20421;-64
2023/05/27 00:28:53;;;;;;;;;;;;;;;;;;5076123;28;19961;-64
2023/05/27 00:31:19;;;;;;;;;;;;;;;;;;5076384;28;20050;-65
2023/05/27 00:33:45;;;;;;;;;;;;;;;;;;5075876;28;20056;-63
2023/05/27 00:36:10;;;;;;;;;;;;;;;;;;5076477;28;19962;-63
2023/05/27 00:38:36;;;;;;;;;;;;;;;;;;5075866;28;19962;-64
2023/05/27 00:41:02;;;;;;;;;;;;;;;;;;5075653;28;19963;-64
2023/05/27 00:43:30;;;;;;;;;;;;;;;;;;5075553;28;20442;-63
2023/05/27 00:45:56;;;;;;;;;;;;;;;;;;5074592;28;20021;-64
2023/05/27 00:48:22;;;;;;;;;;;;;;;;;;5076553;28;19956;-64
2023/05/27 00:50:48;;;;;;;;;;;;;;;;;;5075643;28;20314;-64
2023/05/27 00:53:14;;;;;;;;;;;;;;;;;;5075878;28;19994;-64
2023/05/27 00:55:40;;;;;;;;;;;;;;;;;;5075602;28;19963;-63
2023/05/27 00:58:09;;;;;;;;;;;;;;;;;;5075886;28;20309;-65
2023/05/27 01:00:37;;;;;;;;;;;;;;;;;;5074271;28;19999;-63
2023/05/27 01:03:03;;;;;;;;;;;;;;;;;;5075708;28;19993;-64
2023/05/27 01:05:29;;;;;;;;;;;;;;;;;;5075449;28;19963;-64
2023/05/27 01:07:55;;;;;;;;;;;;;;;;;;5075368;28;20002;-64
2023/05/27 01:10:21;;;;;;;;;;;;;;;;;;5075586;28;19955;-64
2023/05/27 01:12:47;;;;;;;;;;;;;;;;;;5075244;28;20440;-64
2023/05/27 01:15:13;;;;;;;;;;;;;;;;;;5075128;28;20456;-63
2023/05/27 01:17:42;;;;;;;;;;;;;;;;;;5075402;28;20050;-64
2023/05/27 01:20:10;;;;;;;;;;;;;;;;;;5074672;28;20055;-64
2023/05/27 01:22:35;;;;;;;;;;;;;;;;;;5075343;28;20436;-65
2023/05/27 01:25:02;;;;;;;;;;;;;;;;;;5075020;28;19955;-64
2023/05/27 01:27:28;;;;;;;;;;;;;;;;;;5075274;28;19963;-64
2023/05/27 01:29:56;;;;;;;;;;;;;;;;;;5074931;28;19964;-63
2023/05/27 01:32:22;;;;;;;;;;;;;;;;;;5074801;28;19960;-64
2023/05/27 01:34:48;;;;;;;;;;;;;;;;;;5074909;28;20040;-63
2023/05/27 01:37:13;;;;;;;;;;;;;;;;;;5074759;28;19955;-64
2023/05/27 01:39:39;;;;;;;;;;;;;;;;;;5074700;28;20373;-64
2023/05/27 01:42:06;;;;;;;;;;;;;;;;;;5074532;28;19991;-64
2023/05/27 01:44:31;;;;;;;;;;;;;;;;;;5074885;28;19959;-64
2023/05/27 01:46:57;;;;;;;;;;;;;;;;;;5075098;28;20089;-64
2023/05/27 01:49:23;;;;;;;;;;;;;;;;;;5075119;28;19956;-64
2023/05/27 01:51:49;;;;;;;;;;;;;;;;;;5074485;28;19963;-65
2023/05/27 01:54:15;;;;;;;;;;;;;;;;;;5074399;28;19998;-63
2023/05/27 01:56:41;;;;;;;;;;;;;;;;;;5074394;28;19956;-64
2023/05/27 01:59:08;;;;;;;;;;;;;;;;;;5074868;28;20302;-64
2023/05/27 02:01:34;;;;;;;;;;;;;;;;;;5072786;28;19963;-64
2023/05/27 02:04:00;;;;;;;;;;;;;;;;;;5074840;28;20441;-64
2023/05/27 02:06:26;;;;;;;;;;;;;;;;;;5074194;28;19959;-64
2023/05/27 02:08:52;;;;;;;;;;;;;;;;;;5074433;28;20321;-64
2023/05/27 02:11:17;;;;;;;;;;;;;;;;;;5074113;28;19956;-64
2023/05/27 02:13:43;;;;;;;;;;;;;;;;;;5074016;28;20083;-65
2023/05/27 02:16:09;;;;;;;;;;;;;;;;;;5074050;28;20052;-64
2023/05/27 02:18:35;;;;;;;;;;;;;;;;;;5074295;28;19959;-64
2023/05/27 02:21:05;;;;;;;;;;;;;;;;;;5073997;28;20417;-64
2023/05/27 02:23:31;;;;;;;;;;;;;;;;;;5072682;28;19959;-64
2023/05/27 02:25:57;;;;;;;;;;;;;;;;;;5074168;28;19962;-64
2023/05/27 02:28:23;;;;;;;;;;;;;;;;;;5074150;28;19956;-63
2023/05/27 02:30:49;;;;;;;;;;;;;;;;;;5073858;28;19967;-64
2023/05/27 02:33:15;;;;;;;;;;;;;;;;;;5073126;28;20137;-65
2023/05/27 02:35:41;;;;;;;;;;;;;;;;;;5073773;28;20038;-64
2023/05/27 02:38:07;;;;;;;;;;;;;;;;;;5073996;28;19961;-65
2023/05/27 02:40:32;;;;;;;;;;;;;;;;;;5074006;28;19955;-66
2023/05/27 02:42:58;;;;;;;;;;;;;;;;;;5073491;28;19991;-65
2023/05/27 02:45:25;;;;;;;;;;;;;;;;;;5073683;28;19999;-66
2023/05/27 02:47:51;;;;;;;;;;;;;;;;;;5074182;28;19999;-66
2023/05/27 02:50:16;;;;;;;;;;;;;;;;;;5073628;28;19994;-66
2023/05/27 02:52:42;;;;;;;;;;;;;;;;;;5073850;28;19959;-66
2023/05/27 02:55:08;;;;;;;;;;;;;;;;;;5073487;28;20352;-66
2023/05/27 02:57:35;;;;;;;;;;;;;;;;;;5073516;28;19955;-66
2023/05/27 03:00:00;;;;;;;;;;;;;;;;;;5073551;28;19962;-67
2023/05/27 03:02:26;;;;;;;;;;;;;;;;;;5073732;28;19956;-65
2023/05/27 03:04:55;;;;;;;;;;;;;;;;;;5073450;28;20299;-63
2023/05/27 03:07:21;;;;;;;;;;;;;;;;;;5073470;28;19956;-65
2023/05/27 03:09:46;;;;;;;;;;;;;;;;;;5073682;28;19956;-64
2023/05/27 03:12:12;;;;;;;;;;;;;;;;;;5073362;28;20057;-64
2023/05/27 03:14:38;;;;;;;;;;;;;;;;;;5073279;28;20074;-63
2023/05/27 03:17:04;;;;;;;;;;;;;;;;;;5073328;28;20037;-65
2023/05/27 03:19:30;;;;;;;;;;;;;;;;;;5073297;28;19956;-64
2023/05/27 03:21:56;;;;;;;;;;;;;;;;;;5073614;28;19955;-67
2023/05/27 03:24:23;;;;;;;;;;;;;;;;;;5073323;28;20341;-67
2023/05/27 03:26:49;;;;;;;;;;;;;;;;;;5073198;28;19960;-66
2023/05/27 03:29:15;;;;;;;;;;;;;;;;;;5073268;28;20046;-66
2023/05/27 03:31:41;;;;;;;;;;;;;;;;;;5073268;28;20432;-65
2023/05/27 03:34:07;;;;;;;;;;;;;;;;;;5073657;28;19979;-66
2023/05/27 03:36:35;;;;;;;;;;;;;;;;;;5073188;28;19955;-66
2023/05/27 03:39:01;;;;;;;;;;;;;;;;;;5073448;28;19962;-65
2023/05/27 03:41:26;;;;;;;;;;;;;;;;;;5073001;28;19987;-66
2023/05/27 03:43:52;;;;;;;;;;;;;;;;;;5075764;28;20049;-64
2023/05/27 03:46:18;;;;;;;;;;;;;;;;;;5076872;28;19956;-66
2023/05/27 03:48:44;;;;;;;;;;;;;;;;;;5077367;28;19956;-66
2023/05/27 03:51:10;;;;;;;;;;;;;;;;;;5077034;28;19955;-66
2023/05/27 03:53:36;;;;;;;;;;;;;;;;;;5076659;28;20029;-66
2023/05/27 03:56:02;;;;;;;;;;;;;;;;;;5076749;28;20046;-66
2023/05/27 03:58:28;;;;;;;;;;;;;;;;;;5076946;28;20442;-67
2023/05/27 04:00:55;;;;;;;;;;;;;;;;;;5076605;28;19962;-65
2023/05/27 04:03:21;;;;;;;;;;;;;;;;;;5076582;28;20433;-66
2023/05/27 04:05:47;;;;;;;;;;;;;;;;;;5077154;28;19963;-65
2023/05/27 04:08:13;;;;;;;;;;;;;;;;;;5076495;28;19956;-66
2023/05/27 04:10:38;;;;;;;;;;;;;;;;;;5076390;28;19963;-65
2023/05/27 04:13:04;;;;;;;;;;;;;;;;;;5076634;28;20008;-66
2023/05/27 04:15:30;;;;;;;;;;;;;;;;;;5076337;28;19962;-66
2023/05/27 04:17:56;;;;;;;;;;;;;;;;;;5076397;28;20428;-66
2023/05/27 04:20:22;;;;;;;;;;;;;;;;;;5076539;28;20012;-66
2023/05/27 04:22:48;;;;;;;;;;;;;;;;;;5076506;28;19962;-66
2023/05/27 04:25:14;;;;;;;;;;;;;;;;;;5076455;28;19994;-66
2023/05/27 04:27:40;;;;;;;;;;;;;;;;;;5076726;28;19959;-65
2023/05/27 04:30:07;;;;;;;;;;;;;;;;;;5076104;28;19956;-65
2023/05/27 04:32:37;;;;;;;;;;;;;;;;;;5074551;28;19958;-66
2023/05/27 04:35:03;;;;;;;;;;;;;;;;;;5074674;28;20007;-66
2023/05/27 04:37:29;;;;;;;;;;;;;;;;;;5076248;28;20036;-66
2023/05/27 04:39:56;;;;;;;;;;;;;;;;;;5076457;28;20023;-65
2023/05/27 04:42:22;;;;;;;;;;;;;;;;;;5075822;28;19991;-65
2023/05/27 04:44:48;;;;;;;;;;;;;;;;;;5075777;28;20005;-66
2023/05/27 04:47:14;;;;;;;;;;;;;;;;;;5076822;28;19940;-65
2023/05/27 04:49:41;;;;;;;;;;;;;;;;;;5076020;28;19956;-65
2023/05/27 04:52:07;;;;;;;;;;;;;;;;;;5076358;28;19959;-66
2023/05/27 04:54:33;;;;;;;;;;;;;;;;;;5074746;28;19982;-66
2023/05/27 04:56:59;;;;;;;;;;;;;;;;;;5075886;28;19998;-66
2023/05/27 04:59:35;;;;;;;;;;;;;;;;;;5075836;28;20018;-66
2023/05/27 05:02:10;;;;;;;;;;;;;;;;;;5075873;28;19994;-66
2023/05/27 05:04:36;;;;;;;;;;;;;;;;;;5075726;28;20332;-66
2023/05/27 05:07:03;;;;;;;;;;;;;;;;;;5075679;28;19967;-65
2023/05/27 05:09:29;;;;;;;;;;;;;;;;;;5075288;28;19967;-65
2023/05/27 05:11:55;;;;;;;;;;;;;;;;;;5075594;28;19960;-66
2023/05/27 05:14:21;;;;;;;;;;;;;;;;;;5075208;28;20096;-65
2023/05/27 05:16:47;;;;;;;;;;;;;;;;;;5075193;28;20002;-67
2023/05/27 05:19:13;;;;;;;;;;;;;;;;;;5075117;28;19956;-66
2023/05/27 05:21:38;;;;;;;;;;;;;;;;;;5075141;28;19955;-66
2023/05/27 05:24:05;;;;;;;;;;;;;;;;;;5075324;28;19966;-66
2023/05/27 05:26:31;;;;;;;;;;;;;;;;;;5075012;28;19967;-66
2023/05/27 05:28:57;;;;;;;;;;;;;;;;;;5074961;28;19960;-66
2023/05/27 05:31:23;;;;;;;;;;;;;;;;;;5074917;28;19955;-65
2023/05/27 05:33:49;;;;;;;;;;;;;;;;;;5075328;28;20025;-66
2023/05/27 05:36:15;;;;;;;;;;;;;;;;;;5074787;28;19959;-66
2023/05/27 05:38:41;;;;;;;;;;;;;;;;;;5075333;28;19956;-66
2023/05/27 05:41:07;;;;;;;;;;;;;;;;;;5074543;28;20417;-64
2023/05/27 05:43:33;;;;;;;;;;;;;;;;;;5075262;28;19963;-64
2023/05/27 05:45:59;;;;;;;;;;;;;;;;;;5074892;28;19956;-64
2023/05/27 05:48:25;;;;;;;;;;;;;;;;;;5075879;28;19963;-64
2023/05/27 05:50:51;;;;;;;;;;;;;;;;;;5074499;28;19963;-63
2023/05/27 05:53:17;;;;;;;;;;;;;;;;;;5074377;28;19955;-64
2023/05/27 05:55:43;;;;;;;;;;;;;;;;;;5074468;28;20066;-64
2023/05/27 05:58:09;;;;;;;;;;;;;;;;;;5074690;28;19990;-65
2023/05/27 06:00:35;;;;;;;;;;;;;;;;;;5074182;28;19981;-65
2023/05/27 06:03:01;;;;;;;;;;;;;;;;;;5074247;28;19962;-64
2023/05/27 06:05:26;;;;;;;;;;;;;;;;;;5074509;28;19954;-65
2023/05/27 06:07:53;;;;;;;;;;;;;;;;;;5074210;28;20384;-65
2023/05/27 06:10:19;;;;;;;;;;;;;;;;;;5074362;28;19968;-65
2023/05/27 06:12:45;;;;;;;;;;;;;;;;;;5074106;28;20045;-64
2023/05/27 06:15:11;;;;;;;;;;;;;;;;;;5073996;28;20078;-64
2023/05/27 06:17:38;;;;;;;;;;;;;;;;;;5074115;28;19966;-65
2023/05/27 06:20:04;;;;;;;;;;;;;;;;;;5073978;28;19953;-64
2023/05/27 06:22:30;;;;;;;;;;;;;;;;;;5072453;28;19960;-64
2023/05/27 06:24:56;;;;;;;;;;;;;;;;;;5073905;28;19956;-65
2023/05/27 06:27:22;;;;;;;;;;;;;;;;;;5073926;28;20008;-65
2023/05/27 06:29:48;;;;;;;;;;;;;;;;;;5074192;28;19955;-65
2023/05/27 06:32:14;;;;;;;;;;;;;;;;;;5073848;28;19963;-64
2023/05/27 06:34:40;;;;;;;;;;;;;;;;;;5073731;28;20501;-65
2023/05/27 06:37:06;;;;;;;;;;;;;;;;;;5073811;28;19955;-65
2023/05/27 06:39:32;;;;;;;;;;;;;;;;;;5073975;28;19991;-65
2023/05/27 06:41:58;;;;;;;;;;;;;;;;;;5073521;28;19991;-64
2023/05/27 06:44:24;;;;;;;;;;;;;;;;;;5073954;28;20009;-65
2023/05/27 06:46:50;;;;;;;;;;;;;;;;;;5074292;28;19983;-65
2023/05/27 06:49:18;;;;;;;;;;;;;;;;;;5073621;28;20212;-64
2023/05/27 06:51:43;;;;;;;;;;;;;;;;;;5073847;28;19959;-65
2023/05/27 06:54:09;;;;;;;;;;;;;;;;;;5074096;28;19974;-65
2023/05/27 06:56:35;;;;;;;;;;;;;;;;;;5073551;28;19960;-65
2023/05/27 06:59:01;;;;;;;;;;;;;;;;;;5073799;28;19962;-65
2023/05/27 07:01:27;;;;;;;;;;;;;;;;;;5073492;28;19962;-65
2023/05/27 07:03:53;;;;;;;;;;;;;;;;;;5073380;28;19955;-65
2023/05/27 07:06:19;;;;;;;;;;;;;;;;;;5072534;28;20024;-65
2023/05/27 07:08:45;;;;;;;;;;;;;;;;;;5073076;28;19986;-65
2023/05/27 07:11:11;;;;;;;;;;;;;;;;;;5072773;28;20401;-64
2023/05/27 07:13:37;;;;;;;;;;;;;;;;;;5072729;28;20011;-65
2023/05/27 07:16:03;;;;;;;;;;;;;;;;;;5072736;28;19956;-65
2023/05/27 07:18:29;;;;;;;;;;;;;;;;;;5074830;28;20436;-65
2023/05/27 07:20:55;;;;;;;;;;;;;;;;;;5077811;28;19959;-65
2023/05/27 07:23:21;;;;;;;;;;;;;;;;;;5077400;28;20411;-64
2023/05/27 07:25:47;;;;;;;;;;;;;;;;;;5077628;28;19963;-65
2023/05/27 07:28:13;;;;;;;;;;;;;;;;;;5077560;28;20424;-65
2023/05/27 07:30:39;;;;;;;;;;;;;;;;;;5077247;28;20002;-65
2023/05/27 07:33:05;;;;;;;;;;;;;;;;;;5077096;28;20444;-65
2023/05/27 07:35:30;;;;;;;;;;;;;;;;;;5077072;28;19975;-65
2023/05/27 07:37:56;;;;;;;;;;;;;;;;;;5077108;28;20333;-65
2023/05/27 07:40:22;;;;;;;;;;;;;;;;;;5077051;28;19962;-66
2023/05/27 07:42:48;;;;;;;;;;;;;;;;;;5076850;28;19991;-65
2023/05/27 07:45:14;;;;;;;;;;;;;;;;;;5077225;28;19956;-65
2023/05/27 07:47:41;;;;;;;;;;;;;;;;;;5077693;28;20321;-65
2023/05/27 07:50:07;;;;;;;;;;;;;;;;;;5077445;28;19956;-65
2023/05/27 07:52:33;;;;;;;;;;;;;;;;;;5076791;28;20018;-65
2023/05/27 07:54:59;;;;;;;;;;;;;;;;;;5076725;28;19975;-65
2023/05/27 07:57:25;;;;;;;;;;;;;;;;;;5076671;28;19969;-65
2023/05/27 07:59:51;;;;;;;;;;;;;;;;;;5076915;28;19955;-65
2023/05/27 08:02:17;;;;;;;;;;;;;;;;;;5076652;28;19955;-66
2023/05/27 08:04:43;;;;;;;;;;;;;;;;;;5076561;28;19967;-66
2023/05/27 08:07:09;;;;;;;;;;;;;;;;;;5076588;28;20429;-66
2023/05/27 08:09:35;;;;;;;;;;;;;;;;;;5076518;28;20435;-65
2023/05/27 08:12:01;;;;;;;;;;;;;;;;;;5077031;28;20026;-65
2023/05/27 08:14:27;;;;;;;;;;;;;;;;;;5076332;28;19983;-65
2023/05/27 08:16:53;;;;;;;;;;;;;;;;;;5076454;28;19962;-65
2023/05/27 08:19:20;;;;;;;;;;;;;;;;;;5076639;28;19956;-65
2023/05/27 08:21:46;;;;;;;;;;;;;;;;;;5076599;28;19961;-65
2023/05/27 08:24:12;;;;;;;;;;;;;;;;;;5076765;28;19955;-65
2023/05/27 08:26:38;;;;;;;;;;;;;;;;;;5077298;28;19959;-66
2023/05/27 08:29:05;;;;;;;;;;;;;;;;;;5075630;28;20009;-65
2023/05/27 08:31:31;;;;;;;;;;;;;;;;;;5075334;28;19959;-65
2023/05/27 08:33:57;;;;;;;;;;;;;;;;;;5075765;28;19988;-69
2023/05/27 08:36:22;;;;;;;;;;;;;;;;;;5076099;28;19954;-66
2023/05/27 08:38:48;;;;;;;;;;;;;;;;;;5076478;28;20046;-70
2023/05/27 08:41:14;;;;;;;;;;;;;;;;;;5075676;28;19997;-66
2023/05/27 08:43:41;;;;;;;;;;;;;;;;;;5076263;28;19966;-69
2023/05/27 08:46:06;;;;;;;;;;;;;;;;;;5076446;28;20085;-70
2023/05/27 08:48:32;;;;;;;;;;;;;;;;;;5076543;28;19990;-66
2023/05/27 08:51:00;;;;;;;;;;;;;;;;;;5076074;28;19955;-66
2023/05/27 08:53:26;;;;;;;;;;;;;;;;;;5075691;28;19962;-66
2023/05/27 08:55:52;;;;;;;;;;;;;;;;;;5076458;28;20321;-68
2023/05/27 08:58:18;;;;;;;;;;;;;;;;;;5075914;28;19955;-68
2023/05/27 09:00:44;;;;;;;;;;;;;;;;;;5075643;28;19955;-69
2023/05/27 09:03:10;;;;;;;;;;;;;;;;;;5075796;28;19956;-68
2023/05/27 09:05:36;;;;;;;;;;;;;;;;;;5075801;28;19995;-68
2023/05/27 09:08:02;;;;;;;;;;;;;;;;;;5075339;28;20005;-68
2023/05/27 09:10:28;;;;;;;;;;;;;;;;;;5075346;28;19956;-69
2023/05/27 09:12:54;;;;;;;;;;;;;;;;;;5076034;28;20351;-72
2023/05/27 09:15:20;;;;;;;;;;;;;;;;;;5075645;28;19975;-65
2023/05/27 09:17:46;;;;;;;;;;;;;;;;;;5075499;28;19960;-66
2023/05/27 09:20:12;;;;;;;;;;;;;;;;;;5075090;28;20432;-65
2023/05/27 09:22:38;;;;;;;;;;;;;;;;;;5075395;28;19963;-65
2023/05/27 09:25:04;;;;;;;;;;;;;;;;;;5075101;28;19956;-64
2023/05/27 09:27:30;;;;;;;;;;;;;;;;;;5074898;28;20456;-64
2023/05/27 09:29:56;;;;;;;;;;;;;;;;;;5074691;28;19998;-65
2023/05/27 09:32:22;;;;;;;;;;;;;;;;;;5074911;28;20302;-65
2023/05/27 09:34:48;;;;;;;;;;;;;;;;;;5074989;28;19978;-65
2023/05/27 09:37:14;;;;;;;;;;;;;;;;;;5075225;28;20416;-65
2023/05/27 09:39:40;;;;;;;;;;;;;;;;;;5074928;28;19994;-64
2023/05/27 09:42:07;;;;;;;;;;;;;;;;;;5072930;28;19995;-66
2023/05/27 09:44:32;;;;;;;;;;;;;;;;;;5074879;28;19966;-66
2023/05/27 09:46:59;;;;;;;;;;;;;;;;;;5074592;28;19959;-65
2023/05/27 09:49:25;;;;;;;;;;;;;;;;;;5075339;28;19960;-66
2023/05/27 09:51:51;;;;;;;;;;;;;;;;;;5074366;28;20008;-66
2023/05/27 09:54:17;;;;;;;;;;;;;;;;;;5064070;28;19987;-66
2023/05/27 09:56:43;;;;;;;;;;;;;;;;;;5066593;28;19964;-64
2023/05/27 09:59:08;;;;;;;;;;;;;;;;;;5073673;28;19995;-64
2023/05/27 10:01:35;;;;;;;;;;;;;;;;;;5073936;28;19956;-64
2023/05/27 10:04:01;;;;;;;;;;;;;;;;;;5073845;28;19966;-65
2023/05/27 10:06:27;;;;;;;;;;;;;;;;;;5072920;28;20552;-65
2023/05/27 10:08:53;;;;;;;;;;;;;;;;;;5074451;28;19955;-65
2023/05/27 10:11:19;;;;;;;;;;;;;;;;;;5074110;28;19958;-64
2023/05/27 10:13:45;;;;;;;;;;;;;;;;;;5073934;28;20360;-65
2023/05/27 10:16:11;;;;;;;;;;;;;;;;;;5073989;28;20037;-65
2023/05/27 10:18:37;;;;;;;;;;;;;;;;;;5073372;28;20359;-64
2023/05/27 10:21:03;;;;;;;;;;;;;;;;;;5073050;28;19962;-65
2023/05/27 10:23:29;;;;;;;;;;;;;;;;;;5073086;28;20377;-64
2023/05/27 10:25:55;;;;;;;;;;;;;;;;;;5072901;28;20005;-65
2023/05/27 10:28:21;;;;;;;;;;;;;;;;;;5072220;28;20382;-63
2023/05/27 10:30:47;;;;;;;;;;;;;;;;;;5073003;28;19963;-64
2023/05/27 10:33:13;;;;;;;;;;;;;;;;;;5073063;28;19955;-64
2023/05/27 10:35:40;;;;;;;;;;;;;;;;;;5073772;28;20015;-65
2023/05/27 10:38:06;;;;;;;;;;;;;;;;;;5073839;28;19967;-64
2023/05/27 10:40:32;;;;;;;;;;;;;;;;;;5072508;28;20008;-64
2023/05/27 10:42:58;;;;;;;;;;;;;;;;;;5073351;28;20027;-64
2023/05/27 10:45:24;;;;;;;;;;;;;;;;;;5073953;28;19956;-64
2023/05/27 10:47:50;;;;;;;;;;;;;;;;;;5073930;28;19962;-64
2023/05/27 10:50:15;;;;;;;;;;;;;;;;;;5074256;28;19966;-64
2023/05/27 10:52:42;;;;;;;;;;;;;;;;;;5073503;28;20348;-64
2023/05/27 10:55:08;;;;;;;;;;;;;;;;;;5073598;28;19983;-64
2023/05/27 10:57:34;;;;;;;;;;;;;;;;;;5073855;28;19955;-65
2023/05/27 11:00:00;;;;;;;;;;;;;;;;;;5073568;28;20005;-64
2023/05/27 11:02:28;;;;;;;;;;;;;;;;;;5072074;28;20050;-64
2023/05/27 11:04:54;;;;;;;;;;;;;;;;;;5073571;28;20017;-64
2023/05/27 11:07:20;;;;;;;;;;;;;;;;;;5073789;28;20055;-64
2023/05/27 11:09:46;;;;;;;;;;;;;;;;;;5074291;28;19959;-63
2023/05/27 11:12:12;;;;;;;;;;;;;;;;;;5074003;28;19956;-63
2023/05/27 11:14:38;;;;;;;;;;;;;;;;;;5073382;28;20443;-64
2023/05/27 11:17:04;;;;;;;;;;;;;;;;;;5073447;28;19963;-64
2023/05/27 11:19:30;;;;;;;;;;;;;;;;;;5073962;28;19977;-64
2023/05/27 11:21:56;;;;;;;;;;;;;;;;;;5073352;28;20408;-64
2023/05/27 11:24:21;;;;;;;;;;;;;;;;;;5073342;28;19955;-64
2023/05/27 11:26:47;;;;;;;;;;;;;;;;;;5073579;28;19997;-64
2023/05/27 11:29:13;;;;;;;;;;;;;;;;;;5073280;28;19956;-64
2023/05/27 11:31:42;;;;;;;;;;;;;;;;;;5073524;28;19962;-64
2023/05/27 11:34:08;;;;;;;;;;;;;;;;;;5073091;28;19978;-63
2023/05/27 11:36:34;;;;;;;;;;;;;;;;;;5073439;28;19962;-64
2023/05/27 11:39:00;;;;;;;;;;;;;;;;;;5073172;28;19958;-63
2023/05/27 11:41:29;;;;;;;;;;;;;;;;;;5073195;28;20040;-64
2023/05/27 11:43:55;;;;;;;;;;;;;;;;;;5073377;28;19958;-64
2023/05/27 11:46:21;;;;;;;;;;;;;;;;;;5073135;28;20005;-64
2023/05/27 11:48:46;;;;;;;;;;;;;;;;;;5073840;28;20005;-63
2023/05/27 11:51:12;;;;;;;;;;;;;;;;;;5073386;28;19956;-64
2023/05/27 11:53:38;;;;;;;;;;;;;;;;;;5073239;28;20428;-64
2023/05/27 11:56:04;;;;;;;;;;;;;;;;;;5073012;28;20436;-64
2023/05/27 11:58:30;;;;;;;;;;;;;;;;;;5073258;28;20005;-63
2023/05/27 12:00:56;;;;;;;;;;;;;;;;;;5072989;28;19955;-64
2023/05/27 12:03:22;;;;;;;;;;;;;;;;;;5073211;28;19955;-64
2023/05/27 12:05:48;;;;;;;;;;;;;;;;;;5076525;28;19955;-64
2023/05/27 12:08:14;;;;;;;;;;;;;;;;;;5076828;28;20109;-64
2023/05/27 12:10:39;;;;;;;;;;;;;;;;;;5076495;28;19961;-63
2023/05/27 12:13:05;;;;;;;;;;;;;;;;;;5076433;28;19959;-63
2023/05/27 12:15:32;;;;;;;;;;;;;;;;;;5076368;28;19981;-64
2023/05/27 12:17:57;;;;;;;;;;;;;;;;;;5076718;28;19981;-64
2023/05/27 12:20:28;;;;;;;;;;;;;;;;;;5076313;28;19955;-65
2023/05/27 12:22:54;;;;;;;;;;;;;;;;;;5076551;28;20045;-63
2023/05/27 12:25:20;;;;;;;;;;;;;;;;;;5076579;28;20006;-63
2023/05/27 12:27:46;;;;;;;;;;;;;;;;;;5076181;28;20317;-64
2023/05/27 12:30:13;;;;;;;;;;;;;;;;;;5076206;28;19956;-64
2023/05/27 12:32:38;;;;;;;;;;;;;;;;;;5076431;28;19962;-64
2023/05/27 12:35:04;;;;;;;;;;;;;;;;;;5075937;28;19979;-65
2023/05/27 12:37:30;;;;;;;;;;;;;;;;;;5076597;28;20043;-64
2023/05/27 12:39:56;;;;;;;;;;;;;;;;;;5076259;28;20050;-64
2023/05/27 12:42:22;;;;;;;;;;;;;;;;;;5075747;28;20380;-63
2023/05/27 12:44:48;;;;;;;;;;;;;;;;;;5075871;28;19955;-64
2023/05/27 12:47:14;;;;;;;;;;;;;;;;;;5076378;28;19956;-64
2023/05/27 12:49:41;;;;;;;;;;;;;;;;;;5076453;28;20046;-64
2023/05/27 12:52:07;;;;;;;;;;;;;;;;;;5076403;28;20341;-64
2023/05/27 12:54:33;;;;;;;;;;;;;;;;;;5075742;28;19997;-65
2023/05/27 12:57:01;;;;;;;;;;;;;;;;;;5076253;28;20397;-64
2023/05/27 12:59:27;;;;;;;;;;;;;;;;;;5075613;28;20413;-63
2023/05/27 13:01:53;;;;;;;;;;;;;;;;;;5075605;28;19956;-64
2023/05/27 13:04:19;;;;;;;;;;;;;;;;;;5075819;28;19954;-64
2023/05/27 13:06:45;;;;;;;;;;;;;;;;;;5075514;28;19959;-64
2023/05/27 13:09:12;;;;;;;;;;;;;;;;;;5075426;28;20306;-63
2023/05/27 13:11:38;;;;;;;;;;;;;;;;;;5074163;28;19960;-64
2023/05/27 13:14:05;;;;;;;;;;;;;;;;;;5075522;28;19976;-64
2023/05/27 13:16:31;;;;;;;;;;;;;;;;;;5074637;28;20037;-64
2023/05/27 13:18:57;;;;;;;;;;;;;;;;;;5075234;28;19991;-63
2023/05/27 13:21:23;;;;;;;;;;;;;;;;;;5075068;28;19981;-64
2023/05/27 13:23:49;;;;;;;;;;;;;;;;;;5075718;28;19954;-63
2023/05/27 13:26:14;;;;;;;;;;;;;;;;;;5075883;28;19962;-63
2023/05/27 13:28:41;;;;;;;;;;;;;;;;;;5075024;28;20039;-64
2023/05/27 13:31:07;;;;;;;;;;;;;;;;;;5075261;28;19966;-64
2023/05/27 13:33:33;;;;;;;;;;;;;;;;;;5074894;28;19970;-64
2023/05/27 13:35:59;;;;;;;;;;;;;;;;;;5074941;28;19955;-63
2023/05/27 13:38:25;;;;;;;;;;;;;;;;;;5074816;28;19959;-65
2023/05/27 13:40:51;;;;;;;;;;;;;;;;;;5075023;28;19955;-64
2023/05/27 13:43:17;;;;;;;;;;;;;;;;;;5074275;28;19999;-64
2023/05/27 13:45:43;;;;;;;;;;;;;;;;;;5074684;28;20009;-64
2023/05/27 13:48:09;;;;;;;;;;;;;;;;;;5074907;28;19959;-63
2023/05/27 13:50:35;;;;;;;;;;;;;;;;;;5074904;28;20041;-64
2023/05/27 13:53:01;;;;;;;;;;;;;;;;;;5074107;28;20001;-64
2023/05/27 13:55:27;;;;;;;;;;;;;;;;;;5073175;28;19975;-64
2023/05/27 13:57:53;;;;;;;;;;;;;;;;;;5074044;28;20377;-63
2023/05/27 14:00:18;;;;;;;;;;;;;;;;;;5073959;28;19958;-63
2023/05/27 14:02:44;;;;;;;;;;;;;;;;;;5074119;28;19955;-64
2023/05/27 14:05:10;;;;;;;;;;;;;;;;;;5074076;28;20050;-64
2023/05/27 14:07:36;;;;;;;;;;;;;;;;;;5074526;28;19962;-65
2023/05/27 14:10:02;;;;;;;;;;;;;;;;;;5074172;28;20317;-64
2023/05/27 14:12:28;;;;;;;;;;;;;;;;;;5074839;28;19955;-63
2023/05/27 14:14:54;;;;;;;;;;;;;;;;;;5074046;28;19975;-64
2023/05/27 14:17:20;;;;;;;;;;;;;;;;;;5074373;28;19956;-64
2023/05/27 14:19:46;;;;;;;;;;;;;;;;;;5074028;28;20421;-65
2023/05/27 14:22:12;;;;;;;;;;;;;;;;;;5073998;28;19955;-64
2023/05/27 14:24:37;;;;;;;;;;;;;;;;;;5073989;28;19954;-63
2023/05/27 14:27:03;;;;;;;;;;;;;;;;;;5073922;28;20317;-64
2023/05/27 14:29:29;;;;;;;;;;;;;;;;;;5073943;28;20005;-64
2023/05/27 14:31:55;;;;;;;;;;;;;;;;;;5074415;28;20052;-64
2023/05/27 14:34:21;;;;;;;;;;;;;;;;;;5073705;28;19979;-63
2023/05/27 14:36:47;;;;;;;;;;;;;;;;;;5074257;28;20286;-64
2023/05/27 14:39:13;;;;;;;;;;;;;;;;;;5073632;28;20409;-64
2023/05/27 14:41:39;;;;;;;;;;;;;;;;;;5073950;28;20399;-64
2023/05/27 14:44:05;;;;;;;;;;;;;;;;;;5074072;28;19964;-64
2023/05/27 14:46:31;;;;;;;;;;;;;;;;;;5073650;28;19963;-64
2023/05/27 14:48:57;;;;;;;;;;;;;;;;;;5074486;28;19955;-63
2023/05/27 14:51:23;;;;;;;;;;;;;;;;;;5073672;28;19956;-64
2023/05/27 14:53:49;;;;;;;;;;;;;;;;;;5073564;28;19978;-64
2023/05/27 14:56:15;;;;;;;;;;;;;;;;;;5073676;28;20016;-64
2023/05/27 14:58:42;;;;;;;;;;;;;;;;;;5073849;28;19956;-64
2023/05/27 15:01:10;;;;;;;;;;;;;;;;;;5073880;28;19959;-64
2023/05/27 15:03:36;;;;;;;;;;;;;;;;;;5073815;28;19970;-64
2023/05/27 15:06:02;;;;;;;;;;;;;;;;;;5073486;28;19962;-64
2023/05/27 15:08:28;;;;;;;;;;;;;;;;;;5073519;28;19954;-64
2023/05/27 15:10:54;;;;;;;;;;;;;;;;;;5073774;28;19956;-64
2023/05/27 15:13:20;;;;;;;;;;;;;;;;;;5073440;28;19954;-63
2023/05/27 15:15:46;;;;;;;;;;;;;;;;;;5073445;28;19985;-64
2023/05/27 15:18:12;;;;;;;;;;;;;;;;;;5073355;28;19959;-64
2023/05/27 15:20:38;;;;;;;;;;;;;;;;;;5073214;28;20421;-64
2023/05/27 15:23:04;;;;;;;;;;;;;;;;;;5073745;28;19956;-64
2023/05/27 15:25:30;;;;;;;;;;;;;;;;;;5073077;28;19959;-64
2023/05/27 15:27:55;;;;;;;;;;;;;;;;;;5073215;28;19993;-63
2023/05/27 15:30:21;;;;;;;;;;;;;;;;;;5073577;28;19955;-64
2023/05/27 15:32:48;;;;;;;;;;;;;;;;;;5073296;28;20314;-64
2023/05/27 15:35:14;;;;;;;;;;;;;;;;;;5073148;28;20037;-64
2023/05/27 15:37:40;;;;;;;;;;;;;;;;;;5073499;28;19955;-63
2023/05/27 15:40:06;;;;;;;;;;;;;;;;;;5076086;28;20424;-64
2023/05/27 15:42:31;;;;;;;;;;;;;;;;;;5077107;28;20051;-64
2023/05/27 15:44:57;;;;;;;;;;;;;;;;;;5077028;28;19963;-64
2023/05/27 15:47:23;;;;;;;;;;;;;;;;;;5077228;28;20061;-64
2023/05/27 15:49:50;;;;;;;;;;;;;;;;;;5077694;28;19967;-64
2023/05/27 15:52:16;;;;;;;;;;;;;;;;;;5077244;28;19955;-64
2023/05/27 15:54:42;;;;;;;;;;;;;;;;;;5077590;28;20001;-64
2023/05/27 15:57:08;;;;;;;;;;;;;;;;;;5076767;28;20121;-64
2023/05/27 15:59:34;;;;;;;;;;;;;;;;;;5076689;28;19960;-64
2023/05/27 16:02:00;;;;;;;;;;;;;;;;;;5076686;28;20001;-64
2023/05/27 16:04:26;;;;;;;;;;;;;;;;;;5076610;28;20381;-64
2023/05/27 16:06:52;;;;;;;;;;;;;;;;;;5076608;28;20073;-64
2023/05/27 16:09:18;;;;;;;;;;;;;;;;;;5076397;28;19956;-64
2023/05/27 16:11:44;;;;;;;;;;;;;;;;;;5076517;28;19955;-64
2023/05/27 16:14:10;;;;;;;;;;;;;;;;;;5076685;28;19975;-64
2023/05/27 16:16:36;;;;;;;;;;;;;;;;;;5076687;28;20413;-64
2023/05/27 16:19:02;;;;;;;;;;;;;;;;;;5076962;28;19954;-64
2023/05/27 16:21:28;;;;;;;;;;;;;;;;;;5076328;28;19962;-63
2023/05/27 16:23:54;;;;;;;;;;;;;;;;;;5076581;28;19955;-64
2023/05/27 16:26:19;;;;;;;;;;;;;;;;;;5076217;28;20355;-64
2023/05/27 16:28:45;;;;;;;;;;;;;;;;;;5076266;28;19960;-64
2023/05/27 16:31:11;;;;;;;;;;;;;;;;;;5076420;28;20405;-64
2023/05/27 16:33:37;;;;;;;;;;;;;;;;;;5076028;28;19978;-64
2023/05/27 16:36:03;;;;;;;;;;;;;;;;;;5076158;28;19955;-64
2023/05/27 16:38:29;;;;;;;;;;;;;;;;;;5076608;28;19956;-64